Dolph, Arkansas
Current Conditions -  °F | °C
As of 4:53 AM on Monday 20 Oct 2014 (Local Time) from KBPK Reporting Station
Overcast Overcast  
Wind Chill: 53°   Ceiling: 8500
Heat Index: 53°   Visibility: 10mi
Dew Point: 48°   Wind: 3mph
Humidity: 83%   Direction: 230°SW
Pressure: 30.04"   Gusts: NA
Location:  36.23°N, 92.11°W
Report Text: KBPK 200953Z AUTO 23003KT 10SM BKN085 OVC100 12/09 A3004 RMK AO2 SLP169 T01170089 $
Loading
Personal Weather Stations






























Interactive Weather Map New forecast layout! Learn more

10-Day Weather Forecast

Advertisements
Track Severe Weather on mobile